createdAt,value
2023-02-11T00:01:37.691Z,99599.13
2023-02-11T00:04:07.702Z,99596.38
2023-02-11T00:06:36.958Z,99608.28
2023-02-11T00:09:06.437Z,99594.72
2023-02-11T00:11:35.122Z,99600.59
2023-02-11T00:14:05.629Z,99593.56
2023-02-11T00:16:37.985Z,99585.56
2023-02-11T00:19:06.842Z,99591.06
2023-02-11T00:21:35.966Z,99591.56
2023-02-11T00:24:04.624Z,99611.47
2023-02-11T00:26:36.437Z,99608.72
2023-02-11T00:29:05.932Z,99602.66
2023-02-11T00:31:36.008Z,99605.69
2023-02-11T00:34:07.186Z,99596.16
2023-02-11T00:36:35.618Z,99609.31
2023-02-11T00:39:04.112Z,99596.69
2023-02-11T00:41:32.608Z,99606.84
2023-02-11T00:44:01.005Z,99611.13
2023-02-11T00:46:29.442Z,99611.38
2023-02-11T00:48:59.328Z,99611.47
2023-02-11T00:51:28.509Z,99620.59
2023-02-11T00:53:57.874Z,99618.03
2023-02-11T00:56:26.574Z,99628.00
2023-02-11T00:58:55.234Z,99616.19
2023-02-11T01:01:23.768Z,99614.41
2023-02-11T01:03:53.646Z,99620.38
2023-02-11T01:06:26.009Z,99609.97
2023-02-11T01:08:54.497Z,99613.16
2023-02-11T01:11:23.257Z,99623.56
2023-02-11T01:13:52.270Z,99625.53
2023-02-11T01:16:22.806Z,99627.59
2023-02-11T01:18:51.321Z,99632.66
2023-02-11T01:21:19.876Z,99639.38
2023-02-11T01:23:49.664Z,99644.25
2023-02-11T01:26:20.688Z,99643.59
2023-02-11T01:28:49.494Z,99646.00
2023-02-11T01:31:17.960Z,99645.56
2023-02-11T01:33:47.081Z,99647.63
2023-02-11T01:36:15.715Z,99639.03
2023-02-11T01:38:46.981Z,99649.13
2023-02-11T01:41:16.841Z,99650.38
2023-02-11T01:43:52.466Z,99648.44
2023-02-11T01:46:34.956Z,99634.53
2023-02-11T01:49:07.067Z,99639.28
2023-02-11T01:51:38.723Z,99634.28
2023-02-11T01:54:25.831Z,99634.69
2023-02-11T01:57:28.873Z,99648.41
2023-02-11T02:00:06.090Z,99645.28
2023-02-11T02:02:48.392Z,99643.69
2023-02-11T02:05:26.717Z,99638.25
2023-02-11T02:08:00.905Z,99641.09
2023-02-11T02:10:30.554Z,99627.88
2023-02-11T02:13:02.821Z,99638.34
2023-02-11T02:15:34.561Z,99638.41
2023-02-11T02:18:26.850Z,99644.19
2023-02-11T02:21:27.827Z,99642.91
2023-02-11T02:24:28.768Z,99637.72
2023-02-11T02:27:40.452Z,99644.47
2023-02-11T02:30:42.694Z,99644.66
2023-02-11T02:33:32.515Z,99648.06
2023-02-11T02:36:09.814Z,99649.94
2023-02-11T02:38:43.514Z,99645.75
2023-02-11T02:41:15.771Z,99640.81
2023-02-11T02:43:47.108Z,99650.78
2023-02-11T02:46:18.278Z,99653.50
2023-02-11T02:48:53.009Z,99645.38
2023-02-11T02:51:34.257Z,99641.31
2023-02-11T02:54:22.062Z,99640.50
2023-02-11T02:56:54.959Z,99638.44
2023-02-11T02:59:43.724Z,99644.88
2023-02-11T03:02:16.587Z,99639.34
2023-02-11T03:04:51.680Z,99635.44
2023-02-11T03:07:26.469Z,99636.34
2023-02-11T03:09:59.552Z,99639.41
2023-02-11T03:12:29.681Z,99643.81
2023-02-11T03:14:58.337Z,99634.47
2023-02-11T03:17:27.740Z,99639.84
2023-02-11T03:19:59.077Z,99640.16
2023-02-11T03:22:32.071Z,99638.81
2023-02-11T03:25:02.270Z,99632.22
2023-02-11T03:27:36.707Z,99637.66
2023-02-11T03:30:09.534Z,99625.91
2023-02-11T03:32:40.514Z,99632.22
2023-02-11T03:35:13.375Z,99628.19
2023-02-11T03:37:43.934Z,99624.59
2023-02-11T03:40:15.099Z,99617.50
2023-02-11T03:42:55.013Z,99617.78
2023-02-11T03:45:36.804Z,99629.06
2023-02-11T03:48:09.397Z,99623.97
2023-02-11T03:50:40.192Z,99616.56
2023-02-11T03:53:09.850Z,99625.56
2023-02-11T03:55:40.829Z,99622.19
2023-02-11T03:58:10.968Z,99620.06
2023-02-11T04:00:44.024Z,99615.50
2023-02-11T04:03:13.722Z,99618.66
2023-02-11T04:05:43.737Z,99621.34
2023-02-11T04:08:14.912Z,99615.19
2023-02-11T04:10:43.338Z,99613.88
2023-02-11T04:13:11.843Z,99610.59
2023-02-11T04:15:40.254Z,99608.75
2023-02-11T04:18:08.684Z,99612.56
2023-02-11T04:20:37.106Z,99602.72
2023-02-11T04:23:07.100Z,99594.91
2023-02-11T04:25:35.571Z,99603.94
2023-02-11T04:28:04.134Z,99596.06
2023-02-11T04:30:32.674Z,99597.28
2023-02-11T04:33:01.120Z,99608.41
2023-02-11T04:35:29.616Z,99595.75
2023-02-11T04:37:58.048Z,99600.75
2023-02-11T04:40:27.813Z,99600.31
2023-02-11T04:42:56.342Z,99603.31
2023-02-11T04:45:24.988Z,99605.84
2023-02-11T04:47:53.417Z,99601.41
2023-02-11T04:50:21.946Z,99615.88
2023-02-11T04:52:50.409Z,99608.19
2023-02-11T04:55:19.085Z,99611.75
2023-02-11T04:57:48.877Z,99597.53
2023-02-11T05:00:18.149Z,99603.34
2023-02-11T05:02:46.604Z,99599.34
2023-02-11T05:05:22.008Z,99609.41
2023-02-11T05:07:53.377Z,99610.28
2023-02-11T05:10:21.761Z,99610.91
2023-02-11T05:12:55.998Z,99619.28
2023-02-11T05:15:24.656Z,99618.06
2023-02-11T05:17:53.302Z,99606.56
2023-02-11T05:20:26.283Z,99615.13
2023-02-11T05:22:56.782Z,99613.03
2023-02-11T05:25:25.201Z,99611.88
2023-02-11T05:27:57.390Z,99610.34
2023-02-11T05:30:28.401Z,99605.22
2023-02-11T05:32:56.903Z,99597.81
2023-02-11T05:35:25.387Z,99594.78
2023-02-11T05:37:54.346Z,99600.91
2023-02-11T05:40:23.339Z,99607.09
2023-02-11T05:42:55.645Z,99603.84
2023-02-11T05:55:06.227Z,99601.25
2023-02-11T05:57:36.242Z,99610.88
2023-02-11T06:00:06.374Z,99595.69
2023-02-11T06:02:41.591Z,99606.19
2023-02-11T06:05:10.460Z,99607.19
2023-02-11T06:07:41.798Z,99614.56
2023-02-11T06:10:14.681Z,99610.63
2023-02-11T06:12:43.069Z,99618.47
2023-02-11T06:15:11.675Z,99607.59
2023-02-11T06:17:40.170Z,99604.50
2023-02-11T06:20:13.944Z,99592.44
2023-02-11T06:22:43.405Z,99602.38
2023-02-11T06:25:13.516Z,99602.28
2023-02-11T06:27:42.101Z,99604.59
2023-02-11T06:30:14.557Z,99605.47
2023-02-11T06:32:46.315Z,99607.63
2023-02-11T06:35:15.589Z,99597.59
2023-02-11T06:37:44.239Z,99602.34
2023-02-11T06:40:17.738Z,99596.84
2023-02-11T06:42:46.153Z,99593.31
2023-02-11T06:45:16.738Z,99583.00
2023-02-11T06:47:45.201Z,99584.88
2023-02-11T06:50:14.938Z,99588.75
2023-02-11T06:52:44.929Z,99604.69
2023-02-11T06:55:13.361Z,99589.31
2023-02-11T06:57:45.718Z,99598.25
2023-02-11T07:00:15.521Z,99602.72
2023-02-11T07:02:44.118Z,99606.03
2023-02-11T07:05:14.671Z,99610.34
2023-02-11T07:07:43.189Z,99609.03
2023-02-11T07:10:14.421Z,99601.22
2023-02-11T07:12:46.181Z,99598.63
2023-02-11T07:15:14.558Z,99597.31
2023-02-11T07:17:42.845Z,99599.84
2023-02-11T07:20:15.204Z,99595.09
2023-02-11T07:22:43.722Z,99602.72
2023-02-11T07:25:15.071Z,99592.56
2023-02-11T07:27:47.623Z,99584.47
2023-02-11T07:30:16.755Z,99584.06
2023-02-11T07:32:45.172Z,99579.69
2023-02-11T07:35:14.953Z,99577.69
2023-02-11T07:37:43.516Z,99578.50
2023-02-11T07:40:13.666Z,99577.09
2023-02-11T07:42:45.250Z,99567.34
2023-02-11T07:45:15.092Z,99572.34
2023-02-11T07:47:43.977Z,99573.44
2023-02-11T07:50:12.464Z,99564.25
2023-02-11T07:52:40.836Z,99568.28
2023-02-11T07:55:10.403Z,99576.75
2023-02-11T07:57:39.134Z,99566.28
2023-02-11T08:00:08.445Z,99559.91
2023-02-11T08:02:41.234Z,99556.16
2023-02-11T08:05:09.967Z,99557.84
2023-02-11T08:07:41.057Z,99559.06
2023-02-11T08:10:09.889Z,99550.34
2023-02-11T08:12:41.270Z,99550.25
2023-02-11T08:15:10.766Z,99548.69
2023-02-11T08:17:40.627Z,99544.53
2023-02-11T08:20:13.625Z,99530.91
2023-02-11T08:22:42.229Z,99527.13
2023-02-11T08:25:10.690Z,99526.72
2023-02-11T08:27:41.093Z,99524.41
2023-02-11T08:30:13.792Z,99524.00
2023-02-11T08:32:49.589Z,99529.84
2023-02-11T08:35:18.266Z,99522.59
2023-02-11T08:37:46.793Z,99513.78
2023-02-11T08:40:15.220Z,99512.03
2023-02-11T08:42:43.685Z,99516.53
2023-02-11T08:45:12.658Z,99507.56
2023-02-11T08:47:41.243Z,99505.41
2023-02-11T08:50:11.404Z,99503.63
2023-02-11T08:52:43.210Z,99501.75
2023-02-11T08:55:14.709Z,99480.00
2023-02-11T08:57:43.256Z,99475.81
2023-02-11T09:00:12.988Z,99479.69
2023-02-11T09:02:41.446Z,99465.78
2023-02-11T09:05:11.772Z,99445.97
2023-02-11T09:07:40.255Z,99448.13
2023-02-11T09:10:09.200Z,99441.88
2023-02-11T09:12:37.738Z,99423.31
2023-02-11T09:15:06.805Z,99434.09
2023-02-11T09:17:39.465Z,99401.72
2023-02-11T09:20:10.773Z,99423.63
2023-02-11T09:22:41.179Z,99412.81
2023-02-11T09:25:10.041Z,99407.81
2023-02-11T09:27:38.558Z,99401.06
2023-02-11T09:30:10.525Z,99381.09
2023-02-11T09:32:39.101Z,99375.63
2023-02-11T09:35:10.866Z,99389.41
2023-02-11T09:37:40.685Z,99373.50
2023-02-11T09:40:10.010Z,99380.91
2023-02-11T09:42:47.063Z,99381.72
2023-02-11T09:45:20.473Z,99381.22
2023-02-11T09:47:51.400Z,99383.59
2023-02-11T09:50:27.957Z,99371.56
2023-02-11T09:53:01.642Z,99363.03
2023-02-11T09:55:38.847Z,99362.91
2023-02-11T09:58:16.279Z,99354.34
2023-02-11T10:00:54.201Z,99353.59
2023-02-11T10:03:48.657Z,99353.53
2023-02-11T10:06:29.937Z,99354.56
2023-02-11T10:09:06.942Z,99356.56
2023-02-11T10:11:42.804Z,99339.63
2023-02-11T10:14:24.182Z,99342.56
2023-02-11T10:17:06.495Z,99328.06
2023-02-11T10:19:47.782Z,99334.00
2023-02-11T10:22:19.785Z,99330.25
2023-02-11T10:24:53.708Z,99330.88
2023-02-11T10:27:23.285Z,99319.44
2023-02-11T10:29:55.036Z,99308.97
2023-02-11T10:32:33.334Z,99300.06
2023-02-11T10:35:04.047Z,99298.69
2023-02-11T10:37:32.820Z,99289.44
2023-02-11T10:40:02.576Z,99291.72
2023-02-11T10:42:34.498Z,99281.91
2023-02-11T10:45:08.122Z,99263.72
2023-02-11T10:47:38.308Z,99273.31
2023-02-11T10:50:20.798Z,99256.06
2023-02-11T10:52:49.296Z,99252.59
2023-02-11T10:55:24.402Z,99244.16
2023-02-11T10:57:57.630Z,99244.47
2023-02-11T11:00:39.905Z,99247.50
2023-02-11T11:03:19.625Z,99251.56
2023-02-11T11:05:50.465Z,99227.53
2023-02-11T11:08:21.864Z,99232.41
2023-02-11T11:11:03.894Z,99231.88
2023-02-11T11:13:34.041Z,99221.03
2023-02-11T11:16:19.744Z,99217.53
2023-02-11T11:18:49.778Z,99216.03
2023-02-11T11:21:23.214Z,99205.50
2023-02-11T11:23:57.574Z,99193.22
2023-02-11T11:26:28.830Z,99193.75
2023-02-11T11:29:01.843Z,99180.19
2023-02-11T11:31:34.639Z,99174.91
2023-02-11T11:34:23.569Z,99173.75
2023-02-11T11:36:56.225Z,99157.06
2023-02-11T11:39:26.306Z,99156.25
2023-02-11T11:42:00.842Z,99165.38
2023-02-11T11:44:32.348Z,99148.69
2023-02-11T11:47:23.797Z,99134.28
2023-02-11T11:50:10.771Z,99148.50
2023-02-11T11:52:45.558Z,99139.81
2023-02-11T11:55:15.873Z,99133.59
2023-02-11T11:57:46.818Z,99121.13
2023-02-11T12:00:17.596Z,99134.78
2023-02-11T12:03:30.909Z,99133.78
2023-02-11T12:06:14.069Z,99123.06
2023-02-11T12:08:47.328Z,99124.44
2023-02-11T12:11:21.714Z,99115.69
2023-02-11T12:14:14.728Z,99103.56
2023-02-11T12:16:51.930Z,99104.56
2023-02-11T12:19:35.757Z,99105.41
2023-02-11T12:22:11.789Z,99096.41
2023-02-11T12:24:57.271Z,99089.97
2023-02-11T12:27:41.743Z,99087.88
2023-02-11T12:30:20.514Z,99083.63
2023-02-11T12:33:00.002Z,99073.66
2023-02-11T12:35:41.226Z,99060.00
2023-02-11T12:38:23.048Z,99070.97
2023-02-11T12:41:02.890Z,99061.31
2023-02-11T12:43:35.960Z,99061.13
2023-02-11T12:46:29.648Z,99038.25
2023-02-11T12:49:13.230Z,99036.19
2023-02-11T12:51:52.721Z,99044.50
2023-02-11T12:54:30.211Z,99029.22
2023-02-11T12:57:03.421Z,99010.06
2023-02-11T12:59:39.861Z,98999.72
2023-02-11T13:02:17.474Z,99000.16
2023-02-11T13:04:49.326Z,98999.88
2023-02-11T13:07:21.392Z,98996.06
2023-02-11T13:09:53.984Z,98984.16
2023-02-11T13:12:40.210Z,98977.50
2023-02-11T13:15:14.085Z,98971.72
2023-02-11T13:17:50.980Z,98965.19
2023-02-11T13:20:26.326Z,98960.50
2023-02-11T13:23:01.335Z,98943.72
2023-02-11T13:25:33.820Z,98946.34
2023-02-11T13:28:08.941Z,98944.38
2023-02-11T13:30:40.821Z,98923.81
2023-02-11T13:33:33.971Z,98916.31
2023-02-11T13:36:22.656Z,98920.06
2023-02-11T13:39:16.772Z,98908.25
2023-02-11T13:41:52.186Z,98899.94
2023-02-11T13:44:24.191Z,98896.56
2023-02-11T13:47:00.526Z,98885.47
2023-02-11T13:49:36.868Z,98880.09
2023-02-11T13:52:08.006Z,98870.75
2023-02-11T13:54:42.629Z,98865.44
2023-02-11T13:57:23.833Z,98863.84
2023-02-11T13:59:53.054Z,98855.91
2023-02-11T14:02:50.960Z,98831.16
2023-02-11T14:05:47.067Z,98833.25
2023-02-11T14:08:39.598Z,98815.94
2023-02-11T14:11:44.661Z,98815.09
2023-02-11T14:14:24.101Z,98804.81
2023-02-11T14:17:46.929Z,98803.16
2023-02-11T14:20:41.929Z,98785.53
2023-02-11T14:23:23.587Z,98774.47
2023-02-11T14:26:21.743Z,98775.41
2023-02-11T14:28:55.815Z,98770.13
2023-02-11T14:31:32.883Z,98751.41
2023-02-11T14:34:15.812Z,98745.72
2023-02-11T14:37:00.095Z,98732.03
2023-02-11T14:39:43.607Z,98730.31
2023-02-11T14:42:19.100Z,98715.84
2023-02-11T14:44:48.895Z,98715.88
2023-02-11T14:47:20.593Z,98704.19
2023-02-11T14:49:50.395Z,98709.16
2023-02-11T14:52:28.270Z,98695.69
2023-02-11T14:55:08.688Z,98700.63
2023-02-11T14:57:38.675Z,98690.47
2023-02-11T15:00:17.808Z,98688.66
2023-02-11T15:02:46.365Z,98676.81
2023-02-11T15:05:19.250Z,98675.94
2023-02-11T15:07:51.383Z,98669.13
2023-02-11T15:10:24.485Z,98666.75
2023-02-11T15:12:54.773Z,98658.31
2023-02-11T15:15:23.479Z,98655.38
2023-02-11T15:17:52.235Z,98654.97
2023-02-11T15:20:25.988Z,98655.00
2023-02-11T15:23:00.278Z,98649.97
2023-02-11T15:25:30.721Z,98651.50
2023-02-11T15:28:00.647Z,98638.78
2023-02-11T15:30:32.302Z,98634.56
2023-02-11T15:33:03.722Z,98634.78
2023-02-11T15:35:36.846Z,98622.13
2023-02-11T15:38:07.134Z,98632.22
2023-02-11T15:40:37.895Z,98622.19
2023-02-11T15:43:08.668Z,98616.16
2023-02-11T15:45:39.139Z,98611.78
2023-02-11T15:48:10.888Z,98591.44
2023-02-11T15:50:40.975Z,98601.78
2023-02-11T15:53:24.263Z,98591.03
2023-02-11T15:55:56.945Z,98599.22
2023-02-11T15:58:25.619Z,98583.31
2023-02-11T16:00:59.870Z,98581.69
2023-02-11T16:03:32.747Z,98580.81
2023-02-11T16:06:20.052Z,98576.44
2023-02-11T16:09:01.281Z,98574.94
2023-02-11T16:11:32.313Z,98562.25
2023-02-11T16:14:05.159Z,98567.19
2023-02-11T16:16:35.720Z,98555.44
2023-02-11T16:19:06.628Z,98559.88
2023-02-11T16:21:39.359Z,98554.00
2023-02-11T16:24:20.307Z,98547.03
2023-02-11T16:26:50.349Z,98546.22
2023-02-11T16:29:20.389Z,98537.78
2023-02-11T16:31:51.025Z,98537.94
2023-02-11T16:34:22.586Z,98521.66
2023-02-11T16:36:51.731Z,98547.94
2023-02-11T16:39:22.941Z,98528.28
2023-02-11T16:41:52.586Z,98514.94
2023-02-11T16:44:22.546Z,98513.06
2023-02-11T16:46:50.968Z,98516.56
2023-02-11T16:49:26.026Z,98498.88
2023-02-11T16:51:57.644Z,98491.16
2023-02-11T16:54:30.835Z,98481.84
2023-02-11T16:57:02.402Z,98481.25
2023-02-11T16:59:30.945Z,98477.63
2023-02-11T17:01:59.828Z,98490.41
2023-02-11T17:04:30.930Z,98483.56
2023-02-11T17:06:59.369Z,98459.88
2023-02-11T17:09:31.115Z,98463.25
2023-02-11T17:12:00.327Z,98461.53
2023-02-11T17:14:31.930Z,98459.91
2023-02-11T17:17:00.356Z,98461.53
2023-02-11T17:19:34.212Z,98437.84
2023-02-11T17:22:02.711Z,98439.69
2023-02-11T17:24:32.564Z,98424.44
2023-02-11T17:27:01.077Z,98437.22
2023-02-11T17:29:29.669Z,98421.69
2023-02-11T17:31:59.185Z,98432.91
2023-02-11T17:34:32.435Z,98426.88
2023-02-11T17:37:03.292Z,98424.31
2023-02-11T17:39:33.044Z,98421.88
2023-02-11T17:42:01.885Z,98422.78
2023-02-11T17:44:30.365Z,98415.94
2023-02-11T17:46:58.784Z,98405.88
2023-02-11T17:49:27.674Z,98404.81
2023-02-11T17:51:56.094Z,98390.53
2023-02-11T17:54:25.120Z,98389.06
2023-02-11T17:56:58.094Z,98383.41
2023-02-11T17:59:31.806Z,98380.59
2023-02-11T18:02:00.375Z,98364.59
2023-02-11T18:04:28.957Z,98361.88
2023-02-11T18:06:57.775Z,98354.22
2023-02-11T18:09:26.497Z,98341.59
2023-02-11T18:11:56.684Z,98345.81
2023-02-11T18:14:25.249Z,98329.81
2023-02-11T18:16:53.878Z,98324.63
2023-02-11T18:19:22.603Z,98329.72
2023-02-11T18:21:51.189Z,98317.66
2023-02-11T18:24:21.066Z,98312.56
2023-02-11T18:26:49.510Z,98315.25
2023-02-11T18:29:19.475Z,98298.28
2023-02-11T18:31:49.818Z,98294.13
2023-02-11T18:34:18.269Z,98283.94
2023-02-11T18:36:47.872Z,98289.22
2023-02-11T18:39:16.367Z,98278.13
2023-02-11T18:41:44.832Z,98278.97
2023-02-11T18:44:14.329Z,98266.25
2023-02-11T18:46:44.061Z,98279.03
2023-02-11T18:49:15.006Z,98255.25
2023-02-11T18:51:44.409Z,98252.78
2023-02-11T18:54:15.924Z,98272.47
2023-02-11T18:56:44.396Z,98258.78
2023-02-11T18:59:13.169Z,98228.31
2023-02-11T19:01:46.868Z,98235.84
2023-02-11T19:04:20.070Z,98260.47
2023-02-11T19:06:49.912Z,98278.13
2023-02-11T19:09:20.273Z,98270.59
2023-02-11T19:11:52.326Z,98263.09
2023-02-11T19:14:23.162Z,98257.97
2023-02-11T19:16:55.556Z,98260.72
2023-02-11T19:19:25.588Z,98248.81
2023-02-11T19:21:54.069Z,98254.66
2023-02-11T19:24:23.045Z,98252.03
2023-02-11T19:26:52.751Z,98225.72
2023-02-11T19:29:21.413Z,98247.09
2023-02-11T19:31:50.244Z,98226.59
2023-02-11T19:34:23.322Z,98238.56
2023-02-11T19:36:53.500Z,98228.47
2023-02-11T19:39:26.460Z,98230.88
2023-02-11T19:41:54.890Z,98234.25
2023-02-11T19:44:23.534Z,98229.13
2023-02-11T19:46:53.445Z,98224.91
2023-02-11T19:49:26.007Z,98205.41
2023-02-11T19:51:55.804Z,98219.03
2023-02-11T19:54:26.418Z,98205.41
2023-02-11T19:56:54.984Z,98208.94
2023-02-11T19:59:24.412Z,98198.00
2023-02-11T20:01:55.658Z,98196.28
2023-02-11T20:04:25.666Z,98191.19
2023-02-11T20:06:58.147Z,98186.06
2023-02-11T20:09:29.152Z,98180.13
2023-02-11T20:11:57.738Z,98180.03
2023-02-11T20:14:27.937Z,98183.69
2023-02-11T20:16:56.753Z,98181.97
2023-02-11T20:19:30.775Z,98176.81
2023-02-11T20:21:59.342Z,98167.44
2023-02-11T20:24:27.733Z,98171.66
2023-02-11T20:26:56.607Z,98162.34
2023-02-11T20:29:26.041Z,98172.53
2023-02-11T20:31:55.426Z,98164.03
2023-02-11T20:34:25.260Z,98162.34
2023-02-11T20:37:00.793Z,98159.81
2023-02-11T20:39:29.288Z,98165.03
2023-02-11T20:41:58.289Z,98159.13
2023-02-11T20:44:26.764Z,98159.13
2023-02-11T20:46:58.825Z,98154.78
2023-02-11T20:49:28.405Z,98150.50
2023-02-11T20:52:00.279Z,98154.88
2023-02-11T20:54:28.705Z,98155.69
2023-02-11T20:56:58.374Z,98159.88
2023-02-11T20:59:27.864Z,98148.06
2023-02-11T21:01:57.757Z,98150.72
2023-02-11T21:04:28.149Z,98149.84
2023-02-11T21:07:01.984Z,98149.00
2023-02-11T21:09:32.186Z,98151.47
2023-02-11T21:12:00.751Z,98157.41
2023-02-11T21:14:30.317Z,98153.28
2023-02-11T21:17:01.040Z,98143.03
2023-02-11T21:19:29.577Z,98143.81
2023-02-11T21:22:00.811Z,98147.28
2023-02-11T21:24:32.028Z,98158.25
2023-02-11T21:27:00.792Z,98152.38
2023-02-11T21:29:29.347Z,98154.81
2023-02-11T21:31:57.797Z,98158.28
2023-02-11T21:34:28.526Z,98158.28
2023-02-11T21:36:58.347Z,98145.56
2023-02-11T21:39:26.788Z,98152.56
2023-02-11T21:41:56.175Z,98153.31
2023-02-11T21:44:24.799Z,98142.25
2023-02-11T21:46:54.367Z,98137.94
2023-02-11T21:49:23.781Z,98134.63
2023-02-11T21:51:52.169Z,98140.47
2023-02-11T21:54:24.050Z,98139.75
2023-02-11T21:56:52.825Z,98154.09
2023-02-11T21:59:21.190Z,98147.34
2023-02-11T22:01:52.190Z,98140.53
2023-02-11T22:04:20.695Z,98134.66
2023-02-11T22:06:49.130Z,98135.50
2023-02-11T22:09:17.612Z,98133.06
2023-02-11T22:11:49.364Z,98132.94
2023-02-11T22:14:20.464Z,98137.25
2023-02-11T22:16:48.966Z,98138.88
2023-02-11T22:19:19.512Z,98137.25
2023-02-11T22:21:48.010Z,98132.13
2023-02-11T22:24:16.460Z,98132.19
2023-02-11T22:26:45.013Z,98137.22
2023-02-11T22:29:14.871Z,98138.88
2023-02-11T22:31:45.292Z,98137.25
2023-02-11T22:34:13.919Z,98141.44
2023-02-11T22:36:44.762Z,98132.06
2023-02-11T22:39:14.712Z,98137.22
2023-02-11T22:41:44.380Z,98145.69
2023-02-11T22:44:16.398Z,98147.44
2023-02-11T22:46:46.427Z,98144.97
2023-02-11T22:49:16.792Z,98140.69
2023-02-11T22:51:45.504Z,98156.00
2023-02-11T22:54:16.688Z,98150.84
2023-02-11T22:56:48.184Z,98162.78
2023-02-11T22:59:19.596Z,98160.28
2023-02-11T23:01:48.358Z,98170.38
2023-02-11T23:04:19.355Z,98166.00
2023-02-11T23:06:49.499Z,98160.06
2023-02-11T23:09:20.396Z,98167.69
2023-02-11T23:11:49.999Z,98171.88
2023-02-11T23:14:21.169Z,98176.06
2023-02-11T23:16:51.443Z,98175.16
2023-02-11T23:19:20.376Z,98182.81
2023-02-11T23:21:51.972Z,98179.41
2023-02-11T23:24:20.548Z,98187.91
2023-02-11T23:26:49.122Z,98190.44
2023-02-11T23:29:17.687Z,98183.63
2023-02-11T23:31:47.871Z,98183.63
2023-02-11T23:34:20.456Z,98194.69
2023-02-11T23:36:49.929Z,98196.38
2023-02-11T23:39:18.349Z,98200.63
2023-02-11T23:41:47.064Z,98218.56
2023-02-11T23:44:16.570Z,98214.34
2023-02-11T23:46:44.953Z,98217.78
2023-02-11T23:49:15.636Z,98231.41
2023-02-11T23:51:46.642Z,98239.06
2023-02-11T23:54:16.076Z,98256.06
2023-02-11T23:56:46.184Z,98242.44
2023-02-11T23:59:17.180Z,98255.13
